createdAt,value
2018-06-27T00:01:42.034Z,6.50
2018-06-27T00:04:11.061Z,6.60
2018-06-27T00:06:40.140Z,6.80
2018-06-27T00:09:09.168Z,7.40
2018-06-27T00:11:38.241Z,6.30
2018-06-27T00:14:07.264Z,6.92
2018-06-27T00:16:36.321Z,8.05
2018-06-27T00:19:05.532Z,6.08
2018-06-27T00:21:34.576Z,6.20
2018-06-27T00:24:04.364Z,6.80
2018-06-27T00:26:33.416Z,7.05
2018-06-27T00:29:02.524Z,6.08
2018-06-27T00:31:31.625Z,7.28
2018-06-27T00:34:00.662Z,6.92
2018-06-27T00:36:29.749Z,7.95
2018-06-27T00:38:58.500Z,7.00
2018-06-27T00:41:27.465Z,6.75
2018-06-27T00:43:56.552Z,7.40
2018-06-27T00:46:25.608Z,7.80
2018-06-27T00:48:54.644Z,6.72
2018-06-27T00:51:23.685Z,7.92
2018-06-27T00:53:58.044Z,6.70
2018-06-27T00:56:27.117Z,8.08
2018-06-27T00:58:56.134Z,7.85
2018-06-27T01:01:25.185Z,6.72
2018-06-27T01:03:54.333Z,8.20
2018-06-27T01:06:23.393Z,8.30
2018-06-27T01:08:52.444Z,8.40
2018-06-27T01:11:21.731Z,8.15
2018-06-27T01:13:50.793Z,8.35
2018-06-27T01:16:19.880Z,6.90
2018-06-27T01:18:48.953Z,7.10
2018-06-27T01:21:17.988Z,6.95
2018-06-27T01:23:47.027Z,5.95
2018-06-27T01:26:16.285Z,7.30
2018-06-27T01:28:45.354Z,7.35
2018-06-27T01:31:14.419Z,7.22
2018-06-27T01:33:43.431Z,7.62
2018-06-27T01:36:12.506Z,7.60
2018-06-27T01:38:41.525Z,7.62
2018-06-27T01:41:10.603Z,7.67
2018-06-27T01:43:39.614Z,8.10
2018-06-27T01:46:08.675Z,8.45
2018-06-27T01:48:37.753Z,7.92
2018-06-27T01:51:06.828Z,8.58
2018-06-27T01:53:37.276Z,8.80
2018-06-27T01:56:08.292Z,9.60
2018-06-27T01:58:37.115Z,8.58
2018-06-27T02:01:06.111Z,8.18
2018-06-27T02:03:35.138Z,9.45
2018-06-27T02:06:04.238Z,8.70
2018-06-27T02:08:33.286Z,7.90
2018-06-27T02:11:02.326Z,9.15
2018-06-27T02:13:31.351Z,8.45
2018-06-27T02:16:00.483Z,9.33
2018-06-27T02:18:29.559Z,8.85
2018-06-27T02:20:58.588Z,8.18
2018-06-27T02:23:27.648Z,8.33
2018-06-27T02:25:56.661Z,8.30
2018-06-27T02:31:00.934Z,8.73
2018-06-27T02:33:30.506Z,8.88
2018-06-27T02:36:00.067Z,8.28
2018-06-27T02:38:29.133Z,9.10
2018-06-27T02:40:58.164Z,7.85
2018-06-27T02:43:27.179Z,8.50
2018-06-27T02:45:56.242Z,8.23
2018-06-27T02:48:25.264Z,8.53
2018-06-27T02:50:54.308Z,9.10
2018-06-27T02:53:23.352Z,8.33
2018-06-27T02:55:52.412Z,9.65
2018-06-27T02:58:21.167Z,8.40
2018-06-27T03:00:50.132Z,9.30
2018-06-27T03:03:19.172Z,7.22
2018-06-27T03:05:48.214Z,7.65
2018-06-27T03:08:17.628Z,8.98
2018-06-27T03:10:46.644Z,10.58
2018-06-27T03:13:15.720Z,10.18
2018-06-27T03:15:44.778Z,9.03
2018-06-27T03:18:13.816Z,10.30
2018-06-27T03:20:42.885Z,10.90
2018-06-27T03:23:11.937Z,10.58
2018-06-27T03:25:40.963Z,9.93
2018-06-27T03:28:10.013Z,9.73
2018-06-27T03:30:39.066Z,9.80
2018-06-27T03:33:08.111Z,10.72
2018-06-27T03:35:37.139Z,11.78
2018-06-27T03:38:06.441Z,10.68
2018-06-27T03:40:35.470Z,10.68
2018-06-27T03:43:04.507Z,11.00
2018-06-27T03:45:33.572Z,9.58
2018-06-27T03:48:02.641Z,10.00
2018-06-27T03:50:31.677Z,10.13
2018-06-27T03:53:00.731Z,10.72
2018-06-27T03:55:29.800Z,11.33
2018-06-27T03:57:58.568Z,12.37
2018-06-27T04:00:27.493Z,11.40
2018-06-27T04:02:56.542Z,11.48
2018-06-27T04:05:25.634Z,12.33
2018-06-27T04:07:54.732Z,10.93
2018-06-27T04:10:23.748Z,12.10
2018-06-27T04:12:52.827Z,11.43
2018-06-27T04:15:21.856Z,10.50
2018-06-27T04:17:50.988Z,10.78
2018-06-27T04:20:20.033Z,10.05
2018-06-27T04:22:49.097Z,9.80
2018-06-27T04:25:18.136Z,9.00
2018-06-27T04:27:47.192Z,10.18
2018-06-27T04:30:16.239Z,10.53
2018-06-27T04:32:45.287Z,9.48
2018-06-27T04:35:14.346Z,9.70
2018-06-27T04:37:43.370Z,10.10
2018-06-27T04:40:12.417Z,9.40
2018-06-27T04:42:41.419Z,9.28
2018-06-27T04:45:10.475Z,8.95
2018-06-27T04:47:39.495Z,9.30
2018-06-27T04:50:08.574Z,8.40
2018-06-27T04:52:37.641Z,8.43
2018-06-27T04:55:06.691Z,7.90
2018-06-27T04:57:35.736Z,7.58
2018-06-27T05:00:05.459Z,8.10
2018-06-27T05:02:34.508Z,7.90
2018-06-27T05:05:04.419Z,6.97
2018-06-27T05:07:33.451Z,7.37
2018-06-27T05:10:02.497Z,7.08
2018-06-27T05:12:31.524Z,7.33
2018-06-27T05:15:00.564Z,6.72
2018-06-27T05:17:29.583Z,6.90
2018-06-27T05:19:58.672Z,5.75
2018-06-27T05:22:27.775Z,5.90
2018-06-27T05:24:56.820Z,6.37
2018-06-27T05:27:25.957Z,5.95
2018-06-27T05:29:54.964Z,5.90
2018-06-27T05:32:24.025Z,5.65
2018-06-27T05:34:53.100Z,5.40
2018-06-27T05:37:22.219Z,5.70
2018-06-27T05:39:51.305Z,5.05
2018-06-27T05:42:20.348Z,5.25
2018-06-27T05:44:49.534Z,4.55
2018-06-27T05:47:18.593Z,4.90
2018-06-27T05:49:47.628Z,4.30
2018-06-27T05:52:16.676Z,4.72
2018-06-27T05:54:45.837Z,4.78
2018-06-27T05:57:14.927Z,4.00
2018-06-27T05:59:44.045Z,4.90
2018-06-27T06:02:13.093Z,4.70
2018-06-27T06:04:42.128Z,4.78
2018-06-27T06:07:11.144Z,4.33
2018-06-27T06:09:40.307Z,4.78
2018-06-27T06:12:09.325Z,4.00
2018-06-27T06:14:38.332Z,3.87
2018-06-27T06:17:07.409Z,4.20
2018-06-27T06:19:36.444Z,3.20
2018-06-27T06:22:05.476Z,3.15
2018-06-27T06:24:43.743Z,4.10
2018-06-27T06:27:14.040Z,3.60
2018-06-27T06:29:43.905Z,3.10
2018-06-27T06:32:13.582Z,3.20
2018-06-27T06:34:42.544Z,2.65
2018-06-27T06:37:11.915Z,2.72
2018-06-27T06:39:40.875Z,3.22
2018-06-27T06:42:09.952Z,3.40
2018-06-27T06:44:39.018Z,2.65
2018-06-27T06:47:08.097Z,2.90
2018-06-27T06:49:37.213Z,2.72
2018-06-27T06:52:06.889Z,2.83
2018-06-27T06:54:36.024Z,2.50
2018-06-27T06:57:05.229Z,2.50
2018-06-27T06:59:34.211Z,2.50
2018-06-27T07:02:03.611Z,2.35
2018-06-27T07:04:32.845Z,2.42
2018-06-27T07:07:01.920Z,2.42
2018-06-27T07:09:30.724Z,2.12
2018-06-27T07:11:59.689Z,2.27
2018-06-27T07:14:28.702Z,2.90
2018-06-27T07:16:59.091Z,2.23
2018-06-27T07:19:28.893Z,2.47
2018-06-27T07:21:58.023Z,2.17
2018-06-27T07:24:26.776Z,2.07
2018-06-27T07:26:55.848Z,2.40
2018-06-27T07:29:25.092Z,2.67
2018-06-27T07:31:54.440Z,1.90
2018-06-27T07:34:23.544Z,1.90
2018-06-27T07:36:52.877Z,2.07
2018-06-27T07:39:21.909Z,2.10
2018-06-27T07:41:51.228Z,2.00
2018-06-27T07:44:20.531Z,1.97
2018-06-27T07:46:49.659Z,1.80
2018-06-27T07:49:18.860Z,1.67
2018-06-27T07:51:47.976Z,1.73
2018-06-27T07:54:17.153Z,1.80
2018-06-27T07:56:46.765Z,1.83
2018-06-27T07:59:16.003Z,1.73
2018-06-27T08:01:44.857Z,2.20
2018-06-27T08:04:15.225Z,1.70
2018-06-27T08:06:46.025Z,2.30
2018-06-27T08:09:15.494Z,1.80
2018-06-27T08:11:44.598Z,1.97
2018-06-27T08:14:13.626Z,2.23
2018-06-27T08:16:42.706Z,2.27
2018-06-27T08:19:11.784Z,2.10
2018-06-27T08:21:41.815Z,2.10
2018-06-27T08:24:10.842Z,1.90
2018-06-27T08:26:40.117Z,1.80
2018-06-27T08:29:09.126Z,2.10
2018-06-27T08:31:39.851Z,1.70
2018-06-27T08:34:09.728Z,2.00
2018-06-27T08:36:38.860Z,2.00
2018-06-27T08:39:11.929Z,1.80
2018-06-27T08:41:42.682Z,1.83
2018-06-27T08:44:11.700Z,2.00
2018-06-27T08:46:40.443Z,2.00
2018-06-27T08:49:09.401Z,1.50
2018-06-27T08:51:38.457Z,1.60
2018-06-27T08:54:07.517Z,2.00
2018-06-27T08:56:36.656Z,1.90
2018-06-27T08:59:05.825Z,2.00
2018-06-27T09:01:34.868Z,1.50
2018-06-27T09:04:03.951Z,1.97
2018-06-27T09:06:32.702Z,1.47
2018-06-27T09:09:01.622Z,2.20
2018-06-27T09:11:30.636Z,1.70
2018-06-27T09:13:59.686Z,1.70
2018-06-27T09:16:28.728Z,1.50
2018-06-27T09:18:57.795Z,1.70
2018-06-27T09:21:26.817Z,1.33
2018-06-27T09:23:55.986Z,1.73
2018-06-27T09:26:25.120Z,1.60
2018-06-27T09:28:54.171Z,1.70
2018-06-27T09:31:23.190Z,1.63
2018-06-27T09:33:51.951Z,2.07
2018-06-27T09:36:20.896Z,1.30
2018-06-27T09:38:49.965Z,1.98
2018-06-27T09:41:18.991Z,1.80
2018-06-27T09:43:48.057Z,1.47
2018-06-27T09:46:17.167Z,1.70
2018-06-27T09:48:46.260Z,1.50
2018-06-27T09:51:15.422Z,2.10
2018-06-27T09:53:44.469Z,1.20
2018-06-27T09:56:13.516Z,1.30
2018-06-27T09:58:42.565Z,2.03
2018-06-27T10:01:11.618Z,1.50
2018-06-27T10:03:40.720Z,1.70
2018-06-27T10:06:09.452Z,1.80
2018-06-27T10:08:38.428Z,1.83
2018-06-27T10:11:07.497Z,1.63
2018-06-27T10:13:36.648Z,1.50
2018-06-27T10:16:05.692Z,2.00
2018-06-27T10:18:34.709Z,1.80
2018-06-27T10:21:03.780Z,1.60
2018-06-27T10:23:32.853Z,1.97
2018-06-27T10:26:01.941Z,1.67
2018-06-27T10:28:34.077Z,1.50
2018-06-27T10:31:03.228Z,1.43
2018-06-27T10:33:32.345Z,1.70
2018-06-27T10:36:01.405Z,1.47
2018-06-27T10:38:30.478Z,1.50
2018-06-27T10:40:59.609Z,1.70
2018-06-27T10:43:28.380Z,1.37
2018-06-27T10:45:57.015Z,2.90
2018-06-27T10:48:26.009Z,1.70
2018-06-27T10:50:55.028Z,1.87
2018-06-27T10:53:24.100Z,1.33
2018-06-27T10:55:53.118Z,1.33
2018-06-27T10:58:22.173Z,1.33
2018-06-27T11:00:51.200Z,1.30
2018-06-27T11:03:20.264Z,1.50
2018-06-27T11:05:49.332Z,1.40
2018-06-27T11:08:18.777Z,1.20
2018-06-27T11:10:47.937Z,1.30
2018-06-27T11:13:16.949Z,2.03
2018-06-27T11:15:46.152Z,1.40
2018-06-27T11:18:15.191Z,1.70
2018-06-27T11:20:44.275Z,1.30
2018-06-27T11:23:13.353Z,1.80
2018-06-27T11:25:42.430Z,1.40
2018-06-27T11:28:11.532Z,1.70
2018-06-27T11:30:40.571Z,1.07
2018-06-27T11:33:09.648Z,1.30
2018-06-27T11:35:38.687Z,1.30
2018-06-27T11:38:07.732Z,1.40
2018-06-27T11:40:36.794Z,1.47
2018-06-27T11:43:05.921Z,1.70
2018-06-27T11:45:34.952Z,1.53
2018-06-27T11:48:04.064Z,1.40
2018-06-27T11:50:33.136Z,1.40
2018-06-27T11:53:02.197Z,1.80
2018-06-27T11:55:31.248Z,1.37
2018-06-27T11:57:59.976Z,1.80
2018-06-27T12:00:29.099Z,1.43
2018-06-27T12:02:58.128Z,1.40
2018-06-27T12:05:27.187Z,1.63
2018-06-27T12:07:56.300Z,1.67
2018-06-27T12:10:25.413Z,1.33
2018-06-27T12:12:54.585Z,1.40
2018-06-27T12:15:23.621Z,1.20
2018-06-27T12:17:53.583Z,2.00
2018-06-27T12:20:22.653Z,1.80
2018-06-27T12:22:51.684Z,1.80
2018-06-27T12:25:20.736Z,1.20
2018-06-27T12:27:49.763Z,1.60
2018-06-27T12:30:21.496Z,1.50
2018-06-27T12:32:51.046Z,1.53
2018-06-27T12:35:21.216Z,1.60
2018-06-27T12:37:54.915Z,1.43
2018-06-27T12:40:23.962Z,1.27
2018-06-27T12:42:53.021Z,1.30
2018-06-27T12:45:22.956Z,1.10
2018-06-27T12:47:52.031Z,1.60
2018-06-27T12:50:21.151Z,1.33
2018-06-27T12:52:50.212Z,1.30
2018-06-27T12:55:19.347Z,1.27
2018-06-27T12:57:48.376Z,1.40
2018-06-27T13:00:17.425Z,1.07
2018-06-27T13:02:46.456Z,1.10
2018-06-27T13:05:15.568Z,1.43
2018-06-27T13:07:44.610Z,1.20
2018-06-27T13:10:13.669Z,1.20
2018-06-27T13:12:42.729Z,1.30
2018-06-27T13:15:11.808Z,1.63
2018-06-27T13:17:40.920Z,1.30
2018-06-27T13:20:10.164Z,1.13
2018-06-27T13:22:39.279Z,1.30
2018-06-27T13:25:08.370Z,1.50
2018-06-27T13:27:37.497Z,1.50
2018-06-27T13:30:06.814Z,1.30
2018-06-27T13:32:35.562Z,1.23
2018-06-27T13:35:04.897Z,1.23
2018-06-27T13:37:34.011Z,1.93
2018-06-27T13:40:03.156Z,1.27
2018-06-27T13:42:32.236Z,1.50
2018-06-27T13:45:01.358Z,1.50
2018-06-27T13:47:30.937Z,1.50
2018-06-27T13:50:00.105Z,1.20
2018-06-27T13:52:29.116Z,1.60
2018-06-27T13:54:59.676Z,1.40
2018-06-27T13:57:29.311Z,1.50
2018-06-27T13:59:59.467Z,1.20
2018-06-27T14:02:28.624Z,1.77
2018-06-27T14:04:57.771Z,1.50
2018-06-27T14:07:26.849Z,1.40
2018-06-27T14:09:55.974Z,1.50
2018-06-27T14:12:25.036Z,1.47
2018-06-27T14:14:54.089Z,1.17
2018-06-27T14:17:23.148Z,1.37
2018-06-27T14:19:52.204Z,1.30
2018-06-27T14:22:21.324Z,1.30
2018-06-27T14:24:50.524Z,1.40
2018-06-27T14:27:19.604Z,1.30
2018-06-27T14:29:48.657Z,1.17
2018-06-27T14:32:17.741Z,1.47
2018-06-27T14:34:46.882Z,1.53
2018-06-27T14:37:15.980Z,1.30
2018-06-27T14:39:45.038Z,2.33
2018-06-27T14:42:14.174Z,1.27
2018-06-27T14:44:43.334Z,1.50
2018-06-27T14:47:12.385Z,2.10
2018-06-27T14:49:41.503Z,1.80
2018-06-27T14:52:10.602Z,1.53
2018-06-27T14:54:39.684Z,1.40
2018-06-27T14:57:09.046Z,1.40
2018-06-27T14:59:38.292Z,1.47
2018-06-27T15:02:07.613Z,1.30
2018-06-27T15:04:36.814Z,1.40
2018-06-27T15:07:06.682Z,1.60
2018-06-27T15:09:35.907Z,1.80
2018-06-27T15:12:05.280Z,1.30
2018-06-27T15:14:34.407Z,1.20
2018-06-27T15:17:03.590Z,1.40
2018-06-27T15:19:32.653Z,1.37
2018-06-27T15:22:01.835Z,1.70
2018-06-27T15:24:31.023Z,1.90
2018-06-27T15:27:00.195Z,1.80
2018-06-27T15:29:29.319Z,2.20
2018-06-27T15:31:58.412Z,1.50
2018-06-27T15:34:27.759Z,1.70
2018-06-27T15:36:56.917Z,2.23
2018-06-27T15:39:26.029Z,2.10
2018-06-27T15:41:55.153Z,2.47
2018-06-27T15:44:24.403Z,1.90
2018-06-27T15:46:53.656Z,1.70
2018-06-27T15:49:22.897Z,2.00
2018-06-27T15:51:52.056Z,2.30
2018-06-27T15:54:21.259Z,1.87
2018-06-27T15:56:50.441Z,2.10
2018-06-27T15:59:19.550Z,1.90
2018-06-27T16:01:48.706Z,1.80
2018-06-27T16:04:17.963Z,1.90
2018-06-27T16:06:47.074Z,1.63
2018-06-27T16:09:16.134Z,1.60
2018-06-27T16:11:45.510Z,1.87
2018-06-27T16:14:14.455Z,2.00
2018-06-27T16:16:43.640Z,1.73
2018-06-27T16:19:12.660Z,1.77
2018-06-27T16:21:42.085Z,1.80
2018-06-27T16:24:11.266Z,1.50
2018-06-27T16:26:40.345Z,1.63
2018-06-27T16:29:09.360Z,1.87
2018-06-27T16:31:38.602Z,2.10
2018-06-27T16:34:07.749Z,1.50
2018-06-27T16:36:37.277Z,2.27
2018-06-27T16:39:10.041Z,1.90
2018-06-27T16:41:39.121Z,2.00
2018-06-27T16:44:08.275Z,1.60
2018-06-27T16:46:37.305Z,1.83
2018-06-27T16:49:06.976Z,2.20
2018-06-27T16:51:36.369Z,1.90
2018-06-27T16:54:05.477Z,1.70
2018-06-27T16:56:34.537Z,3.80
2018-06-27T16:59:03.909Z,1.27
2018-06-27T17:01:33.145Z,1.60
2018-06-27T17:04:02.121Z,1.70
2018-06-27T17:06:31.476Z,1.60
2018-06-27T17:09:00.530Z,1.97
2018-06-27T17:11:29.541Z,1.60
2018-06-27T17:13:58.616Z,1.40
2018-06-27T17:16:27.636Z,2.50
2018-06-27T17:18:56.779Z,1.70
2018-06-27T17:21:25.847Z,1.43
2018-06-27T17:23:54.980Z,1.47
2018-06-27T17:26:24.452Z,1.27
2018-06-27T17:28:53.527Z,1.33
2018-06-27T17:31:22.694Z,1.30
2018-06-27T17:33:51.857Z,1.20
2018-06-27T17:36:20.952Z,1.33
2018-06-27T17:38:50.413Z,1.37
2018-06-27T17:41:19.541Z,1.60
2018-06-27T17:43:48.619Z,1.30
2018-06-27T17:46:17.680Z,1.60
2018-06-27T17:48:46.760Z,1.47
2018-06-27T17:51:15.866Z,1.90
2018-06-27T17:53:45.283Z,1.50
2018-06-27T17:56:14.397Z,1.97
2018-06-27T17:58:43.485Z,1.40
2018-06-27T18:01:12.575Z,1.70
2018-06-27T18:03:41.645Z,1.50
2018-06-27T18:06:10.842Z,1.57
2018-06-27T18:08:39.935Z,1.10
2018-06-27T18:11:09.005Z,1.20
2018-06-27T18:13:38.114Z,1.40
2018-06-27T18:16:07.247Z,1.77
2018-06-27T18:18:36.470Z,1.50
2018-06-27T18:21:05.941Z,1.33
2018-06-27T18:23:35.092Z,1.40
2018-06-27T18:26:04.246Z,1.10
2018-06-27T18:28:33.326Z,1.57
2018-06-27T18:31:02.098Z,1.37
2018-06-27T18:33:30.770Z,1.70
2018-06-27T18:35:59.873Z,1.30
2018-06-27T18:38:29.067Z,1.20
2018-06-27T18:40:58.151Z,1.43
2018-06-27T18:43:27.336Z,1.40
2018-06-27T18:45:56.392Z,1.50
2018-06-27T18:48:25.645Z,1.27
2018-06-27T18:50:54.779Z,1.30
2018-06-27T18:53:24.105Z,1.70
2018-06-27T18:55:53.217Z,2.00
2018-06-27T18:58:22.270Z,1.55
2018-06-27T19:00:51.455Z,1.40
2018-06-27T19:03:20.561Z,1.80
2018-06-27T19:05:49.642Z,1.60
2018-06-27T19:08:18.872Z,2.20
2018-06-27T19:10:47.884Z,1.82
2018-06-27T19:13:16.994Z,2.45
2018-06-27T19:15:46.153Z,1.90
2018-06-27T19:18:15.255Z,1.90
2018-06-27T19:20:44.529Z,1.57
2018-06-27T19:23:13.578Z,2.05
2018-06-27T19:25:42.675Z,4.72
2018-06-27T19:28:11.747Z,1.80
2018-06-27T19:30:40.988Z,2.00
2018-06-27T19:33:10.143Z,1.90
2018-06-27T19:35:39.275Z,1.90
2018-06-27T19:38:08.355Z,1.57
2018-06-27T19:40:37.532Z,2.10
2018-06-27T19:43:06.720Z,1.85
2018-06-27T19:45:36.344Z,1.80
2018-06-27T19:48:05.468Z,1.90
2018-06-27T19:50:34.660Z,2.17
2018-06-27T19:53:03.747Z,1.80
2018-06-27T19:55:33.242Z,2.72
2018-06-27T19:58:02.308Z,2.22
2018-06-27T20:00:31.059Z,2.10
2018-06-27T20:03:00.078Z,1.80
2018-06-27T20:05:29.184Z,2.25
2018-06-27T20:07:58.918Z,2.30
2018-06-27T20:10:28.257Z,2.00
2018-06-27T20:12:57.345Z,2.17
2018-06-27T20:15:26.381Z,2.30
2018-06-27T20:17:55.433Z,2.40
2018-06-27T20:20:24.513Z,2.50
2018-06-27T20:22:53.569Z,2.35
2018-06-27T20:25:22.798Z,2.75
2018-06-27T20:27:51.944Z,2.75
2018-06-27T20:30:21.108Z,3.00
2018-06-27T20:32:50.219Z,2.90
2018-06-27T20:35:19.501Z,2.87
2018-06-27T20:37:48.595Z,2.80
2018-06-27T20:40:17.664Z,2.75
2018-06-27T20:42:46.756Z,2.83
2018-06-27T20:45:15.912Z,2.60
2018-06-27T20:47:45.019Z,2.52
2018-06-27T20:50:14.152Z,2.60
2018-06-27T20:52:43.208Z,3.10
2018-06-27T20:55:12.452Z,2.87
2018-06-27T20:57:41.532Z,2.67
2018-06-27T21:00:10.593Z,3.22
2018-06-27T21:02:39.700Z,2.75
2018-06-27T21:05:08.764Z,2.90
2018-06-27T21:07:37.867Z,2.90
2018-06-27T21:10:07.004Z,2.70
2018-06-27T21:12:36.060Z,3.08
2018-06-27T21:15:05.321Z,3.05
2018-06-27T21:17:34.436Z,2.80
2018-06-27T21:20:03.554Z,3.17
2018-06-27T21:22:32.581Z,3.65
2018-06-27T21:25:01.635Z,2.58
2018-06-27T21:27:30.707Z,2.98
2018-06-27T21:29:59.732Z,3.00
2018-06-27T21:32:28.817Z,3.12
2018-06-27T21:34:57.873Z,3.52
2018-06-27T21:37:26.958Z,3.40
2018-06-27T21:39:56.036Z,3.40
2018-06-27T21:42:25.112Z,3.52
2018-06-27T21:44:54.204Z,3.90
2018-06-27T21:47:23.261Z,4.10
2018-06-27T21:49:52.301Z,3.25
2018-06-27T21:52:21.421Z,4.35
2018-06-27T21:54:50.428Z,3.50
2018-06-27T21:57:19.472Z,3.27
2018-06-27T21:59:48.516Z,3.62
2018-06-27T22:02:17.628Z,3.85
2018-06-27T22:04:47.012Z,3.55
2018-06-27T22:07:16.099Z,4.05
2018-06-27T22:09:44.835Z,4.25
2018-06-27T22:12:13.848Z,3.85
2018-06-27T22:14:43.306Z,4.10
2018-06-27T22:17:12.325Z,3.92
2018-06-27T22:19:41.336Z,4.10
2018-06-27T22:22:10.381Z,4.28
2018-06-27T22:24:39.391Z,3.62
2018-06-27T22:27:08.455Z,4.10
2018-06-27T22:29:37.508Z,3.70
2018-06-27T22:32:06.641Z,4.10
2018-06-27T22:34:35.734Z,3.65
2018-06-27T22:37:04.729Z,4.28
2018-06-27T22:39:33.769Z,4.05
2018-06-27T22:42:02.825Z,4.60
2018-06-27T22:44:31.872Z,4.05
2018-06-27T22:47:00.949Z,4.37
2018-06-27T22:49:29.964Z,4.17
2018-06-27T22:51:59.020Z,4.15
2018-06-27T22:54:28.108Z,4.53
2018-06-27T22:56:57.191Z,4.22
2018-06-27T22:59:25.968Z,4.10
2018-06-27T23:01:54.916Z,4.10
2018-06-27T23:04:23.979Z,4.95
2018-06-27T23:06:53.055Z,4.50
2018-06-27T23:09:22.110Z,4.45
2018-06-27T23:11:51.142Z,3.90
2018-06-27T23:14:19.881Z,4.65
2018-06-27T23:16:48.845Z,4.00
2018-06-27T23:19:17.972Z,4.22
2018-06-27T23:21:46.988Z,5.00
2018-06-27T23:24:16.335Z,5.28
2018-06-27T23:26:45.391Z,5.30
2018-06-27T23:29:14.408Z,4.85
2018-06-27T23:31:43.484Z,5.78
2018-06-27T23:34:12.552Z,4.53
2018-06-27T23:36:41.600Z,5.08
2018-06-27T23:39:12.438Z,4.28
2018-06-27T23:41:42.213Z,5.22
2018-06-27T23:44:11.240Z,5.15
2018-06-27T23:46:40.369Z,6.92
2018-06-27T23:49:09.420Z,6.20
2018-06-27T23:51:38.492Z,6.12
2018-06-27T23:54:07.556Z,5.70
2018-06-27T23:56:36.643Z,6.10
2018-06-27T23:59:05.671Z,5.95
